Terminal Aerodrome Forecast
Issued by NWS Bismarck, ND

Home | Current Version | Previous Version | Graphics & Text | Print | Product List | Glossary On
Versions: 1 2 3 4 5 6 7 8 9 10 11 12 13 14 15 16 17 18 19 20 21 22 23 24 25
027
FTUS43 KBIS 241737 AAA
TAFISN
TAF AMD
KISN 241737Z 2418/2518 23011KT P6SM BKN050
     FM242000 23011G19KT P6SM BKN150
     FM242300 23008KT P6SM SCT200
     FM250300 VRB04KT P6SM SCT200
     FM250800 VRB04KT P6SM -SHRA VCTS OVC040CB
     FM251500 05008KT P6SM -SHRA VCTS OVC025CB=

USA.gov is the U.S. government's official web portal to all federal, state and local government web resources and services.